createdAt,value
2023-02-02T00:01:39.710Z,4.72
2023-02-02T00:04:07.723Z,4.75
2023-02-02T00:06:36.142Z,4.72
2023-02-02T00:09:05.140Z,4.71
2023-02-02T00:11:33.058Z,4.76
2023-02-02T00:14:01.955Z,4.82
2023-02-02T00:16:43.503Z,4.79
2023-02-02T00:19:14.310Z,4.76
2023-02-02T00:21:43.961Z,4.78
2023-02-02T00:24:13.343Z,4.72
2023-02-02T00:26:43.596Z,4.72
2023-02-02T00:29:16.758Z,4.68
2023-02-02T00:31:46.195Z,4.76
2023-02-02T00:34:15.192Z,4.71
2023-02-02T00:36:44.593Z,4.69
2023-02-02T00:39:15.451Z,4.58
2023-02-02T00:41:43.438Z,4.48
2023-02-02T00:44:29.341Z,4.45
2023-02-02T00:46:58.763Z,4.50
2023-02-02T00:49:27.495Z,4.47
2023-02-02T00:51:55.428Z,4.50
2023-02-02T00:54:23.856Z,4.54
2023-02-02T00:56:52.227Z,4.51
2023-02-02T00:59:20.238Z,4.43
2023-02-02T01:01:48.466Z,4.40
2023-02-02T01:04:18.833Z,4.44
2023-02-02T01:06:47.846Z,4.48
2023-02-02T01:09:15.814Z,4.45
2023-02-02T01:11:44.365Z,4.34
2023-02-02T01:14:12.261Z,4.40
2023-02-02T01:16:41.402Z,4.38
2023-02-02T01:19:09.664Z,4.40
2023-02-02T01:21:39.415Z,4.40
2023-02-02T01:24:08.863Z,4.43
2023-02-02T01:26:37.776Z,4.30
2023-02-02T01:29:05.736Z,4.30
2023-02-02T01:31:34.557Z,4.32
2023-02-02T01:34:02.738Z,4.32
2023-02-02T01:36:31.969Z,4.27
2023-02-02T01:39:01.383Z,4.30
2023-02-02T01:41:30.032Z,4.30
2023-02-02T01:44:00.364Z,4.32
2023-02-02T01:46:30.101Z,4.16
2023-02-02T01:49:08.907Z,4.18
2023-02-02T01:51:43.851Z,4.14
2023-02-02T01:54:33.158Z,4.14
2023-02-02T01:57:04.904Z,4.11
2023-02-02T01:59:35.152Z,4.20
2023-02-02T02:02:04.161Z,4.18
2023-02-02T02:04:33.471Z,4.24
2023-02-02T02:07:04.353Z,4.24
2023-02-02T02:09:35.819Z,4.20
2023-02-02T02:12:03.865Z,4.21
2023-02-02T02:14:49.697Z,4.17
2023-02-02T02:17:34.962Z,4.18
2023-02-02T02:21:00.506Z,4.17
2023-02-02T02:24:16.484Z,4.16
2023-02-02T02:27:14.620Z,4.27
2023-02-02T02:30:16.748Z,4.30
2023-02-02T02:32:51.303Z,4.32
2023-02-02T02:35:30.143Z,4.48
2023-02-02T02:38:03.127Z,4.43
2023-02-02T02:40:37.527Z,4.48
2023-02-02T02:43:10.298Z,4.50
2023-02-02T02:45:40.782Z,4.54
2023-02-02T02:48:11.449Z,4.61
2023-02-02T02:50:40.800Z,4.51
2023-02-02T02:53:13.862Z,4.57
2023-02-02T02:55:50.916Z,4.54
2023-02-02T02:58:26.877Z,4.61
2023-02-02T03:01:04.129Z,4.60
2023-02-02T03:03:52.758Z,4.55
2023-02-02T03:06:24.858Z,4.57
2023-02-02T03:08:59.603Z,4.58
2023-02-02T03:11:28.837Z,4.51
2023-02-02T03:13:57.324Z,4.48
2023-02-02T03:16:26.184Z,4.55
2023-02-02T03:18:56.560Z,4.51
2023-02-02T03:21:24.952Z,4.51
2023-02-02T03:23:53.317Z,4.57
2023-02-02T03:26:21.761Z,4.64
2023-02-02T03:28:50.175Z,4.60
2023-02-02T03:31:19.988Z,4.65
2023-02-02T03:33:48.189Z,4.69
2023-02-02T03:36:19.624Z,4.64
2023-02-02T03:38:48.059Z,4.72
2023-02-02T03:41:16.240Z,4.68
2023-02-02T03:43:45.088Z,4.75
2023-02-02T03:46:13.038Z,4.68
2023-02-02T03:48:41.476Z,4.80
2023-02-02T03:51:12.029Z,4.87
2023-02-02T03:53:44.314Z,4.92
2023-02-02T03:56:13.159Z,5.06
2023-02-02T03:58:41.104Z,5.09
2023-02-02T04:01:13.030Z,5.12
2023-02-02T04:03:41.678Z,5.01
2023-02-02T04:06:09.910Z,5.00
2023-02-02T04:08:39.452Z,5.10
2023-02-02T04:11:12.056Z,5.06
2023-02-02T04:13:40.831Z,5.16
2023-02-02T04:16:09.268Z,5.10
2023-02-02T04:18:38.935Z,5.09
2023-02-02T04:21:09.062Z,5.04
2023-02-02T04:23:37.252Z,5.00
2023-02-02T04:26:05.817Z,5.06
2023-02-02T04:28:36.067Z,5.01
2023-02-02T04:31:04.058Z,5.01
2023-02-02T04:33:36.599Z,5.09
2023-02-02T04:36:05.694Z,5.10
2023-02-02T04:38:33.608Z,5.06
2023-02-02T04:41:08.277Z,5.09
2023-02-02T04:43:38.871Z,5.07
2023-02-02T04:46:07.905Z,5.14
2023-02-02T04:48:36.310Z,5.19
2023-02-02T04:51:06.350Z,5.14
2023-02-02T04:53:34.848Z,5.23
2023-02-02T04:56:10.127Z,5.27
2023-02-02T04:58:39.554Z,5.28
2023-02-02T05:01:12.892Z,5.27
2023-02-02T05:03:40.978Z,5.32
2023-02-02T05:06:09.145Z,5.26
2023-02-02T05:08:38.611Z,5.27
2023-02-02T05:11:10.158Z,5.24
2023-02-02T05:13:40.419Z,5.24
2023-02-02T05:16:08.643Z,5.17
2023-02-02T05:18:37.115Z,5.16
2023-02-02T05:21:05.816Z,5.19
2023-02-02T05:23:34.486Z,5.13
2023-02-02T05:26:02.994Z,5.07
2023-02-02T05:28:30.964Z,5.01
2023-02-02T05:31:00.873Z,5.00
2023-02-02T05:33:29.090Z,4.99
2023-02-02T05:35:56.980Z,4.93
2023-02-02T05:38:26.006Z,4.90
2023-02-02T05:40:53.876Z,4.89
2023-02-02T05:43:25.543Z,4.89
2023-02-02T05:45:53.639Z,4.92
2023-02-02T05:48:23.192Z,4.93
2023-02-02T05:50:57.419Z,4.89
2023-02-02T05:53:25.901Z,4.86
2023-02-02T05:55:54.244Z,4.82
2023-02-02T05:58:22.194Z,4.80
2023-02-02T06:00:50.132Z,4.76
2023-02-02T06:03:19.311Z,4.73
2023-02-02T06:05:49.075Z,4.71
2023-02-02T06:08:17.448Z,4.67
2023-02-02T06:10:45.861Z,4.67
2023-02-02T06:13:14.639Z,4.62
2023-02-02T06:15:43.287Z,4.57
2023-02-02T06:18:36.595Z,4.51
2023-02-02T06:21:07.402Z,4.50
2023-02-02T06:23:36.357Z,4.38
2023-02-02T06:26:04.646Z,4.41
2023-02-02T06:28:33.313Z,4.37
2023-02-02T06:31:06.339Z,4.30
2023-02-02T06:33:34.502Z,4.30
2023-02-02T06:36:03.247Z,4.21
2023-02-02T06:38:33.837Z,4.17
2023-02-02T06:41:02.411Z,4.21
2023-02-02T06:43:32.562Z,4.17
2023-02-02T06:46:01.344Z,4.14
2023-02-02T06:48:29.378Z,4.09
2023-02-02T06:50:59.314Z,4.14
2023-02-02T06:53:28.221Z,4.07
2023-02-02T06:55:58.893Z,4.07
2023-02-02T06:58:27.923Z,4.09
2023-02-02T07:00:55.976Z,3.98
2023-02-02T07:03:24.598Z,3.95
2023-02-02T07:05:52.497Z,3.96
2023-02-02T07:08:20.455Z,3.93
2023-02-02T07:11:14.738Z,3.89
2023-02-02T07:13:38.892Z,3.93
2023-02-02T07:16:08.000Z,3.85
2023-02-02T07:18:37.361Z,3.78
2023-02-02T07:21:05.789Z,3.83
2023-02-02T07:23:34.690Z,3.88
2023-02-02T07:26:05.332Z,3.82
2023-02-02T07:28:34.030Z,3.88
2023-02-02T07:31:14.055Z,3.85
2023-02-02T07:33:43.061Z,3.89
2023-02-02T07:36:11.441Z,3.88
2023-02-02T07:38:39.755Z,3.85
2023-02-02T07:41:07.755Z,3.86
2023-02-02T07:43:35.789Z,3.86
2023-02-02T07:46:08.737Z,3.93
2023-02-02T07:48:37.628Z,3.93
2023-02-02T07:51:10.251Z,3.90
2023-02-02T07:53:38.224Z,3.99
2023-02-02T07:56:11.743Z,3.92
2023-02-02T07:58:40.115Z,3.98
2023-02-02T08:01:11.647Z,3.92
2023-02-02T08:03:43.379Z,3.88
2023-02-02T08:06:13.648Z,3.92
2023-02-02T08:08:42.689Z,3.93
2023-02-02T08:11:12.571Z,4.00
2023-02-02T08:13:41.978Z,3.98
2023-02-02T08:16:12.746Z,3.98
2023-02-02T08:18:41.224Z,4.05
2023-02-02T08:21:11.176Z,3.98
2023-02-02T08:23:41.380Z,4.00
2023-02-02T08:26:12.534Z,4.00
2023-02-02T08:28:41.604Z,4.00
2023-02-02T08:31:13.383Z,4.02
2023-02-02T08:33:41.602Z,4.07
2023-02-02T08:36:14.095Z,4.07
2023-02-02T08:38:42.681Z,4.03
2023-02-02T08:41:12.668Z,4.06
2023-02-02T08:43:42.114Z,4.14
2023-02-02T08:46:14.165Z,4.18
2023-02-02T08:48:43.458Z,4.13
2023-02-02T08:51:14.423Z,4.18
2023-02-02T08:53:43.800Z,4.26
2023-02-02T08:56:14.270Z,4.33
2023-02-02T08:58:46.172Z,4.29
2023-02-02T09:01:18.029Z,4.37
2023-02-02T09:03:46.928Z,4.40
2023-02-02T09:06:16.533Z,4.45
2023-02-02T09:08:44.980Z,4.45
2023-02-02T09:11:15.865Z,4.45
2023-02-02T09:13:45.858Z,4.40
2023-02-02T09:16:18.596Z,4.44
2023-02-02T09:18:47.276Z,4.44
2023-02-02T09:21:17.291Z,4.41
2023-02-02T09:23:46.582Z,4.43
2023-02-02T09:26:16.674Z,4.41
2023-02-02T09:28:46.640Z,4.38
2023-02-02T09:31:16.536Z,4.45
2023-02-02T09:33:45.636Z,4.44
2023-02-02T09:36:15.686Z,4.55
2023-02-02T09:38:44.844Z,4.55
2023-02-02T09:41:56.688Z,4.54
2023-02-02T09:44:40.758Z,4.68
2023-02-02T09:47:18.772Z,4.62
2023-02-02T09:49:58.348Z,4.65
2023-02-02T09:52:29.677Z,4.64
2023-02-02T09:55:01.894Z,4.64
2023-02-02T09:57:34.949Z,4.71
2023-02-02T10:00:06.234Z,4.72
2023-02-02T10:02:46.301Z,4.68
2023-02-02T10:05:20.871Z,4.65
2023-02-02T10:07:53.216Z,4.65
2023-02-02T10:10:27.207Z,4.68
2023-02-02T10:12:59.751Z,4.67
2023-02-02T10:15:37.402Z,4.71
2023-02-02T10:18:15.777Z,4.62
2023-02-02T10:20:49.237Z,4.69
2023-02-02T10:23:26.424Z,4.69
2023-02-02T10:25:59.536Z,4.73
2023-02-02T10:28:42.527Z,4.76
2023-02-02T10:31:20.576Z,4.76
2023-02-02T10:34:03.407Z,4.76
2023-02-02T10:36:45.605Z,4.65
2023-02-02T10:39:25.133Z,4.68
2023-02-02T10:42:03.337Z,4.82
2023-02-02T10:44:38.571Z,4.78
2023-02-02T10:47:10.543Z,4.79
2023-02-02T10:49:42.739Z,4.85
2023-02-02T10:52:17.487Z,4.89
2023-02-02T10:55:00.026Z,4.95
2023-02-02T10:57:44.406Z,4.82
2023-02-02T11:00:22.946Z,4.89
2023-02-02T11:02:53.492Z,4.90
2023-02-02T11:05:43.298Z,4.86
2023-02-02T11:08:20.738Z,4.96
2023-02-02T11:10:53.455Z,4.93
2023-02-02T11:13:48.712Z,4.97
2023-02-02T11:16:32.646Z,5.06
2023-02-02T11:19:24.218Z,5.10
2023-02-02T11:21:56.385Z,4.92
2023-02-02T11:24:28.685Z,5.14
2023-02-02T11:26:59.232Z,5.21
2023-02-02T11:29:31.034Z,5.20
2023-02-02T11:31:59.762Z,5.24
2023-02-02T11:34:29.519Z,5.24
2023-02-02T11:37:11.647Z,5.19
2023-02-02T11:39:40.079Z,5.13
2023-02-02T11:42:15.360Z,5.24
2023-02-02T11:44:47.760Z,5.12
2023-02-02T11:47:26.866Z,5.04
2023-02-02T11:49:57.673Z,5.07
2023-02-02T11:52:33.077Z,5.06
2023-02-02T11:55:03.640Z,5.12
2023-02-02T11:57:32.028Z,5.20
2023-02-02T12:00:27.700Z,5.13
2023-02-02T12:02:55.822Z,5.21
2023-02-02T12:05:38.495Z,5.34
2023-02-02T12:08:12.669Z,5.27
2023-02-02T12:10:45.583Z,5.35
2023-02-02T12:13:21.168Z,5.32
2023-02-02T12:15:54.784Z,5.40
2023-02-02T12:18:38.908Z,5.58
2023-02-02T12:21:11.024Z,5.58
2023-02-02T12:23:55.449Z,5.59
2023-02-02T12:26:28.583Z,5.55
2023-02-02T12:29:23.509Z,5.47
2023-02-02T12:32:05.377Z,5.52
2023-02-02T12:34:43.537Z,5.45
2023-02-02T12:37:22.261Z,5.31
2023-02-02T12:40:04.490Z,5.35
2023-02-02T12:42:54.668Z,5.35
2023-02-02T12:45:41.286Z,5.35
2023-02-02T12:48:19.613Z,5.31
2023-02-02T12:51:01.150Z,5.31
2023-02-02T12:53:42.819Z,5.23
2023-02-02T12:56:24.462Z,5.16
2023-02-02T12:59:03.264Z,5.16
2023-02-02T13:01:56.554Z,5.27
2023-02-02T13:04:43.846Z,5.26
2023-02-02T13:07:40.236Z,5.13
2023-02-02T13:10:17.224Z,5.06
2023-02-02T13:12:51.926Z,5.03
2023-02-02T13:15:23.951Z,5.01
2023-02-02T13:17:55.689Z,4.97
2023-02-02T13:20:37.082Z,5.03
2023-02-02T13:23:11.750Z,4.96
2023-02-02T13:25:47.913Z,5.06
2023-02-02T13:28:27.618Z,5.09
2023-02-02T13:31:01.185Z,5.14
2023-02-02T13:33:34.301Z,5.19
2023-02-02T13:36:07.143Z,5.07
2023-02-02T13:38:39.265Z,5.04
2023-02-02T13:41:12.608Z,5.03
2023-02-02T13:43:48.486Z,5.04
2023-02-02T13:46:26.947Z,5.03
2023-02-02T13:49:03.055Z,4.99
2023-02-02T13:51:49.772Z,4.96
2023-02-02T13:54:52.759Z,5.00
2023-02-02T13:57:39.325Z,5.04
2023-02-02T14:00:18.915Z,5.01
2023-02-02T14:02:49.790Z,4.97
2023-02-02T14:05:27.409Z,4.90
2023-02-02T14:08:03.305Z,5.01
2023-02-02T14:10:35.287Z,4.95
2023-02-02T14:13:32.713Z,4.95
2023-02-02T14:16:06.174Z,4.89
2023-02-02T14:18:57.519Z,4.95
2023-02-02T14:21:59.447Z,4.95
2023-02-02T14:24:45.199Z,4.93
2023-02-02T14:27:56.383Z,4.96
2023-02-02T14:30:33.754Z,4.95
2023-02-02T14:33:48.000Z,4.97
2023-02-02T14:36:18.056Z,5.01
2023-02-02T14:39:07.020Z,4.96
2023-02-02T14:42:19.477Z,4.90
2023-02-02T14:45:17.785Z,4.83
2023-02-02T14:47:51.639Z,4.89
2023-02-02T14:50:26.881Z,4.87
2023-02-02T14:53:02.420Z,4.87
2023-02-02T14:55:31.877Z,4.89
2023-02-02T14:58:03.432Z,4.95
2023-02-02T15:00:34.442Z,5.04
2023-02-02T15:03:37.964Z,5.00
2023-02-02T15:06:26.166Z,4.86
2023-02-02T15:09:28.454Z,4.90
2023-02-02T15:12:17.714Z,4.90
2023-02-02T15:14:50.243Z,4.93
2023-02-02T15:17:28.106Z,4.95
2023-02-02T15:20:06.169Z,4.89
2023-02-02T15:22:38.974Z,4.92
2023-02-02T15:25:18.426Z,4.82
2023-02-02T15:27:56.766Z,4.69
2023-02-02T15:30:27.537Z,4.72
2023-02-02T15:32:57.109Z,4.64
2023-02-02T15:35:31.196Z,4.68
2023-02-02T15:38:02.917Z,4.64
2023-02-02T15:40:32.358Z,4.68
2023-02-02T15:43:06.744Z,4.68
2023-02-02T15:45:41.505Z,4.69
2023-02-02T15:48:21.538Z,4.68
2023-02-02T15:50:54.681Z,4.68
2023-02-02T15:53:27.990Z,4.69
2023-02-02T15:55:57.687Z,4.71
2023-02-02T15:58:29.352Z,4.64
2023-02-02T16:01:15.299Z,4.73
2023-02-02T16:03:52.255Z,4.71
2023-02-02T16:06:20.818Z,4.71
2023-02-02T16:08:50.710Z,4.69
2023-02-02T16:11:23.358Z,4.68
2023-02-02T16:14:01.293Z,4.64
2023-02-02T16:16:31.729Z,4.62
2023-02-02T16:19:14.335Z,4.57
2023-02-02T16:21:47.924Z,4.55
2023-02-02T16:24:21.977Z,4.64
2023-02-02T16:26:53.681Z,4.58
2023-02-02T16:29:22.108Z,4.57
2023-02-02T16:31:51.545Z,4.52
2023-02-02T16:34:20.729Z,4.50
2023-02-02T16:37:07.084Z,4.50
2023-02-02T16:39:36.437Z,4.38
2023-02-02T16:42:11.917Z,4.37
2023-02-02T16:44:42.936Z,4.40
2023-02-02T16:47:34.341Z,4.47
2023-02-02T16:50:26.221Z,4.41
2023-02-02T16:52:58.516Z,4.32
2023-02-02T16:55:43.458Z,4.33
2023-02-02T16:58:21.440Z,4.37
2023-02-02T17:01:08.766Z,4.29
2023-02-02T17:03:50.882Z,4.36
2023-02-02T17:06:26.244Z,4.36
2023-02-02T17:08:55.082Z,4.33
2023-02-02T17:11:26.517Z,4.30
2023-02-02T17:13:56.221Z,4.32
2023-02-02T17:16:25.776Z,4.30
2023-02-02T17:18:54.863Z,4.29
2023-02-02T17:21:25.225Z,4.24
2023-02-02T17:23:55.165Z,4.29
2023-02-02T17:26:24.651Z,4.30
2023-02-02T17:28:56.974Z,4.34
2023-02-02T17:31:25.796Z,4.24
2023-02-02T17:33:53.707Z,4.26
2023-02-02T17:36:22.552Z,4.20
2023-02-02T17:38:50.458Z,4.26
2023-02-02T17:41:18.827Z,4.27
2023-02-02T17:43:48.683Z,4.18
2023-02-02T17:46:16.464Z,4.20
2023-02-02T17:48:44.381Z,4.21
2023-02-02T17:51:17.149Z,4.27
2023-02-02T17:53:46.102Z,4.27
2023-02-02T17:56:14.024Z,4.20
2023-02-02T17:58:42.991Z,4.17
2023-02-02T18:01:13.270Z,4.30
2023-02-02T18:03:48.167Z,4.38
2023-02-02T18:06:16.139Z,4.43
2023-02-02T18:08:45.602Z,4.34
2023-02-02T18:11:16.485Z,4.38
2023-02-02T18:13:44.551Z,4.47
2023-02-02T18:16:14.402Z,4.48
2023-02-02T18:18:43.262Z,4.60
2023-02-02T18:21:12.041Z,4.67
2023-02-02T18:23:40.002Z,4.71
2023-02-02T18:26:13.488Z,4.76
2023-02-02T18:28:41.570Z,4.76
2023-02-02T18:31:10.703Z,4.76
2023-02-02T18:33:42.174Z,4.73
2023-02-02T18:36:12.438Z,4.75
2023-02-02T18:38:44.253Z,4.80
2023-02-02T18:41:12.609Z,4.79
2023-02-02T18:43:40.448Z,4.82
2023-02-02T18:46:11.431Z,4.86
2023-02-02T18:48:42.013Z,4.85
2023-02-02T18:51:16.071Z,4.82
2023-02-02T18:53:44.867Z,4.92
2023-02-02T18:56:14.734Z,4.97
2023-02-02T18:58:43.571Z,5.01
2023-02-02T19:01:13.397Z,5.09
2023-02-02T19:03:43.655Z,5.07
2023-02-02T19:06:28.845Z,5.13
2023-02-02T19:08:57.410Z,5.17
2023-02-02T19:11:27.992Z,5.24
2023-02-02T19:13:57.082Z,5.34
2023-02-02T19:16:28.026Z,5.38
2023-02-02T19:19:01.547Z,5.49
2023-02-02T19:21:31.830Z,5.56
2023-02-02T19:24:00.872Z,5.67
2023-02-02T19:26:30.442Z,5.85
2023-02-02T19:29:04.061Z,5.90
2023-02-02T19:31:32.359Z,5.93
2023-02-02T19:34:03.644Z,6.01
2023-02-02T19:36:31.889Z,6.10
2023-02-02T19:39:03.452Z,6.13
2023-02-02T19:41:33.056Z,6.16
2023-02-02T19:44:07.366Z,6.22
2023-02-02T19:46:43.191Z,6.25
2023-02-02T19:49:17.398Z,6.32
2023-02-02T19:51:48.087Z,6.38
2023-02-02T19:54:28.313Z,6.48
2023-02-02T19:56:59.185Z,6.52
2023-02-02T19:59:33.238Z,6.53
2023-02-02T20:02:28.845Z,6.66
2023-02-02T20:05:07.346Z,6.72
2023-02-02T20:07:36.056Z,6.79
2023-02-02T20:10:16.126Z,6.86
2023-02-02T20:12:45.058Z,6.89
2023-02-02T20:15:26.966Z,6.97
2023-02-02T20:17:58.294Z,7.01
2023-02-02T20:20:30.079Z,7.05
2023-02-02T20:22:58.732Z,7.08
2023-02-02T20:25:26.843Z,7.09
2023-02-02T20:27:55.446Z,7.09
2023-02-02T20:30:26.731Z,7.09
2023-02-02T20:32:58.595Z,7.14
2023-02-02T20:35:37.207Z,7.11
2023-02-02T20:38:19.612Z,7.12
2023-02-02T20:40:48.162Z,7.19
2023-02-02T20:43:16.102Z,7.18
2023-02-02T20:45:44.753Z,7.21
2023-02-02T20:48:14.198Z,7.15
2023-02-02T20:50:43.755Z,7.21
2023-02-02T20:53:15.223Z,7.24
2023-02-02T20:55:44.356Z,7.21
2023-02-02T20:58:12.593Z,7.28
2023-02-02T21:00:41.207Z,7.28
2023-02-02T21:03:09.144Z,7.28
2023-02-02T21:05:38.325Z,7.29
2023-02-02T21:08:08.129Z,7.31
2023-02-02T21:10:35.943Z,7.31
2023-02-02T21:13:04.188Z,7.34
2023-02-02T21:15:32.657Z,7.28
2023-02-02T21:18:00.555Z,7.36
2023-02-02T21:20:29.330Z,7.35
2023-02-02T21:22:58.190Z,7.35
2023-02-02T21:25:27.735Z,7.38
2023-02-02T21:28:00.710Z,7.38
2023-02-02T21:30:29.072Z,7.41
2023-02-02T21:32:57.186Z,7.35
2023-02-02T21:35:28.293Z,7.38
2023-02-02T21:37:58.806Z,7.38
2023-02-02T21:40:30.609Z,7.36
2023-02-02T21:43:00.523Z,7.38
2023-02-02T21:45:35.921Z,7.41
2023-02-02T21:48:07.191Z,7.35
2023-02-02T21:50:38.185Z,7.42
2023-02-02T21:53:20.470Z,7.39
2023-02-02T21:55:53.861Z,7.42
2023-02-02T21:58:27.589Z,7.41
2023-02-02T22:01:01.097Z,7.39
2023-02-02T22:03:39.401Z,7.38
2023-02-02T22:06:24.392Z,7.46
2023-02-02T22:08:54.511Z,7.43
2023-02-02T22:11:31.772Z,7.42
2023-02-02T22:14:08.976Z,7.48
2023-02-02T22:16:44.747Z,7.43
2023-02-02T22:19:30.518Z,7.45
2023-02-02T22:22:22.240Z,7.46
2023-02-02T22:24:57.836Z,7.49
2023-02-02T22:27:36.855Z,7.52
2023-02-02T22:30:26.567Z,7.45
2023-02-02T22:32:55.866Z,7.48
2023-02-02T22:35:23.867Z,7.53
2023-02-02T22:37:52.471Z,7.49
2023-02-02T22:40:23.103Z,7.53
2023-02-02T22:42:53.418Z,7.49
2023-02-02T22:45:22.706Z,7.52
2023-02-02T22:47:51.199Z,7.53
2023-02-02T22:50:22.290Z,7.48
2023-02-02T22:52:50.577Z,7.51
2023-02-02T22:55:19.199Z,7.53
2023-02-02T22:57:48.394Z,7.55
2023-02-02T23:00:20.269Z,7.56
2023-02-02T23:02:49.692Z,7.58
2023-02-02T23:05:20.189Z,7.56
2023-02-02T23:07:49.133Z,7.62
2023-02-02T23:10:21.193Z,7.63
2023-02-02T23:12:50.203Z,7.66
2023-02-02T23:15:19.747Z,7.63
2023-02-02T23:17:48.908Z,7.66
2023-02-02T23:20:17.083Z,7.62
2023-02-02T23:22:45.589Z,7.71
2023-02-02T23:25:15.059Z,7.65
2023-02-02T23:27:43.660Z,7.74
2023-02-02T23:30:13.877Z,7.74
2023-02-02T23:32:44.143Z,7.73
2023-02-02T23:35:12.204Z,7.76
2023-02-02T23:37:40.261Z,7.76
2023-02-02T23:40:10.302Z,7.78
2023-02-02T23:42:38.783Z,7.80
2023-02-02T23:45:07.206Z,7.81
2023-02-02T23:47:36.690Z,7.83
2023-02-02T23:50:09.361Z,7.77
2023-02-02T23:52:38.925Z,7.80
2023-02-02T23:55:08.337Z,7.84
2023-02-02T23:57:36.865Z,7.84
